sensor_id;sensor_type;location;lat;lon;timestamp;pressure;altitude;pressure_sealevel;temperature;humidity
76201;BME280;64981;52.930;9.266;2023-06-26T00:00:16;101086.72;;;21.18;65.40
76201;BME280;64981;52.930;9.266;2023-06-26T00:02:41;101084.84;;;21.12;65.82
76201;BME280;64981;52.930;9.266;2023-06-26T00:05:07;101077.75;;;20.99;65.88
76201;BME280;64981;52.930;9.266;2023-06-26T00:07:33;101071.59;;;20.99;66.29
76201;BME280;64981;52.930;9.266;2023-06-26T00:10:01;101074.88;;;21.01;66.32
76201;BME280;64981;52.930;9.266;2023-06-26T00:12:28;101069.13;;;20.97;66.16
76201;BME280;64981;52.930;9.266;2023-06-26T00:14:54;101072.09;;;20.89;66.46
76201;BME280;64981;52.930;9.266;2023-06-26T00:17:20;101078.06;;;20.91;66.03
76201;BME280;64981;52.930;9.266;2023-06-26T00:19:46;101082.53;;;20.97;65.84
76201;BME280;64981;52.930;9.266;2023-06-26T00:22:12;101068.91;;;20.99;65.87
76201;BME280;64981;52.930;9.266;2023-06-26T00:24:37;101074.28;;;20.99;65.72
76201;BME280;64981;52.930;9.266;2023-06-26T00:27:03;101061.66;;;20.99;65.76
76201;BME280;64981;52.930;9.266;2023-06-26T00:29:29;101070.09;;;21.03;66.55
76201;BME280;64981;52.930;9.266;2023-06-26T00:31:54;101073.97;;;21.07;65.88
76201;BME280;64981;52.930;9.266;2023-06-26T00:34:20;101067.84;;;21.00;66.13
76201;BME280;64981;52.930;9.266;2023-06-26T00:36:45;101062.53;;;20.93;66.32
76201;BME280;64981;52.930;9.266;2023-06-26T00:39:11;101064.25;;;20.87;66.32
76201;BME280;64981;52.930;9.266;2023-06-26T00:41:37;101065.06;;;20.88;66.11
76201;BME280;64981;52.930;9.266;2023-06-26T00:44:04;101057.53;;;20.78;66.09
76201;BME280;64981;52.930;9.266;2023-06-26T00:46:31;101057.53;;;20.78;66.43
76201;BME280;64981;52.930;9.266;2023-06-26T00:48:59;101052.59;;;20.75;67.09
76201;BME280;64981;52.930;9.266;2023-06-26T00:51:27;101054.69;;;20.73;66.61
76201;BME280;64981;52.930;9.266;2023-06-26T00:53:54;101058.25;;;20.67;67.22
76201;BME280;64981;52.930;9.266;2023-06-26T00:56:20;101048.63;;;20.60;67.28
76201;BME280;64981;52.930;9.266;2023-06-26T00:58:46;101047.72;;;20.66;67.34
76201;BME280;64981;52.930;9.266;2023-06-26T01:01:12;101041.16;;;20.62;67.02
76201;BME280;64981;52.930;9.266;2023-06-26T01:03:44;101040.88;;;20.70;66.83
76201;BME280;64981;52.930;9.266;2023-06-26T01:06:14;101041.91;;;20.69;67.27
76201;BME280;64981;52.930;9.266;2023-06-26T01:08:41;101031.69;;;20.59;67.56
76201;BME280;64981;52.930;9.266;2023-06-26T01:11:08;101040.50;;;20.66;67.29
76201;BME280;64981;52.930;9.266;2023-06-26T01:13:35;101035.59;;;20.63;67.17
76201;BME280;64981;52.930;9.266;2023-06-26T01:16:03;101030.84;;;20.59;67.42
76201;BME280;64981;52.930;9.266;2023-06-26T01:18:31;101025.88;;;20.62;67.39
76201;BME280;64981;52.930;9.266;2023-06-26T01:20:58;101027.28;;;20.65;67.10
76201;BME280;64981;52.930;9.266;2023-06-26T01:26:32;101015.13;;;20.62;67.46
76201;BME280;64981;52.930;9.266;2023-06-26T01:29:03;101012.25;;;20.64;66.91
76201;BME280;64981;52.930;9.266;2023-06-26T01:31:31;101019.84;;;20.67;67.11
76201;BME280;64981;52.930;9.266;2023-06-26T01:33:59;101010.84;;;20.61;66.81
76201;BME280;64981;52.930;9.266;2023-06-26T01:36:26;101005.69;;;20.60;66.62
76201;BME280;64981;52.930;9.266;2023-06-26T01:38:51;101002.59;;;20.56;66.58
76201;BME280;64981;52.930;9.266;2023-06-26T01:41:19;100997.03;;;20.58;66.90
76201;BME280;64981;52.930;9.266;2023-06-26T01:44:11;100997.47;;;20.55;67.47
76201;BME280;64981;52.930;9.266;2023-06-26T01:46:58;100978.97;;;20.47;67.35
76201;BME280;64981;52.930;9.266;2023-06-26T01:49:57;100986.44;;;20.38;67.98
76201;BME280;64981;52.930;9.266;2023-06-26T01:55:21;100977.91;;;20.23;68.11
76201;BME280;64981;52.930;9.266;2023-06-26T01:57:53;100984.06;;;20.30;68.82
76201;BME280;64981;52.930;9.266;2023-06-26T02:00:20;100980.16;;;20.26;68.41
76201;BME280;64981;52.930;9.266;2023-06-26T02:02:46;100983.03;;;20.24;68.44
76201;BME280;64981;52.930;9.266;2023-06-26T02:05:13;100984.25;;;20.28;68.56
76201;BME280;64981;52.930;9.266;2023-06-26T02:07:39;100966.31;;;20.29;68.53
76201;BME280;64981;52.930;9.266;2023-06-26T02:10:05;100977.41;;;20.32;68.14
76201;BME280;64981;52.930;9.266;2023-06-26T02:12:31;100968.44;;;20.20;68.44
76201;BME280;64981;52.930;9.266;2023-06-26T02:14:57;100971.72;;;20.22;67.90
76201;BME280;64981;52.930;9.266;2023-06-26T02:17:22;100970.63;;;20.30;68.00
76201;BME280;64981;52.930;9.266;2023-06-26T02:19:48;100972.25;;;20.31;67.51
76201;BME280;64981;52.930;9.266;2023-06-26T02:22:14;100968.91;;;20.42;67.23
76201;BME280;64981;52.930;9.266;2023-06-26T02:24:41;100969.75;;;20.36;67.53
76201;BME280;64981;52.930;9.266;2023-06-26T02:27:07;100967.28;;;20.34;67.67
76201;BME280;64981;52.930;9.266;2023-06-26T02:29:33;100959.69;;;20.31;67.36
76201;BME280;64981;52.930;9.266;2023-06-26T02:31:58;100969.13;;;20.34;67.42
76201;BME280;64981;52.930;9.266;2023-06-26T02:34:24;100951.03;;;20.29;67.29
76201;BME280;64981;52.930;9.266;2023-06-26T02:36:49;100950.47;;;20.21;67.34
76201;BME280;64981;52.930;9.266;2023-06-26T02:39:15;100956.28;;;20.18;67.86
76201;BME280;64981;52.930;9.266;2023-06-26T02:41:40;100956.13;;;20.13;67.96
76201;BME280;64981;52.930;9.266;2023-06-26T02:44:06;100948.41;;;20.23;67.24
76201;BME280;64981;52.930;9.266;2023-06-26T02:46:32;100953.78;;;20.23;67.37
76201;BME280;64981;52.930;9.266;2023-06-26T02:48:59;100954.22;;;20.20;67.80
76201;BME280;64981;52.930;9.266;2023-06-26T02:51:25;100949.06;;;20.18;67.67
76201;BME280;64981;52.930;9.266;2023-06-26T02:53:50;100949.75;;;20.38;67.07
76201;BME280;64981;52.930;9.266;2023-06-26T02:56:16;100934.75;;;20.24;67.48
76201;BME280;64981;52.930;9.266;2023-06-26T02:58:41;100935.06;;;20.41;66.95
76201;BME280;64981;52.930;9.266;2023-06-26T03:01:07;100928.50;;;20.30;67.17
76201;BME280;64981;52.930;9.266;2023-06-26T03:03:33;100927.91;;;20.28;67.50
76201;BME280;64981;52.930;9.266;2023-06-26T03:06:07;100932.25;;;20.29;67.10
76201;BME280;64981;52.930;9.266;2023-06-26T03:08:36;100921.25;;;20.13;67.97
76201;BME280;64981;52.930;9.266;2023-06-26T03:11:02;100933.41;;;20.15;67.41
76201;BME280;64981;52.930;9.266;2023-06-26T03:13:27;100932.41;;;20.34;66.76
76201;BME280;64981;52.930;9.266;2023-06-26T03:15:53;100930.16;;;20.31;67.02
76201;BME280;64981;52.930;9.266;2023-06-26T03:18:18;100937.81;;;20.28;67.29
76201;BME280;64981;52.930;9.266;2023-06-26T03:20:44;100931.53;;;20.16;67.41
76201;BME280;64981;52.930;9.266;2023-06-26T03:23:10;100925.41;;;20.09;67.31
76201;BME280;64981;52.930;9.266;2023-06-26T03:25:35;100928.28;;;20.14;67.16
76201;BME280;64981;52.930;9.266;2023-06-26T03:28:01;100927.41;;;20.20;66.90
76201;BME280;64981;52.930;9.266;2023-06-26T03:30:26;100922.91;;;20.14;67.30
76201;BME280;64981;52.930;9.266;2023-06-26T03:32:52;100920.22;;;20.14;67.10
76201;BME280;64981;52.930;9.266;2023-06-26T03:35:17;100924.31;;;20.16;67.05
76201;BME280;64981;52.930;9.266;2023-06-26T03:37:43;100926.41;;;20.14;67.04
76201;BME280;64981;52.930;9.266;2023-06-26T03:40:09;100917.38;;;20.09;67.07
76201;BME280;64981;52.930;9.266;2023-06-26T03:42:35;100923.66;;;20.21;66.89
76201;BME280;64981;52.930;9.266;2023-06-26T03:45:00;100912.78;;;20.16;67.25
76201;BME280;64981;52.930;9.266;2023-06-26T03:47:26;100913.53;;;20.23;66.99
76201;BME280;64981;52.930;9.266;2023-06-26T03:49:51;100904.81;;;20.27;66.74
76201;BME280;64981;52.930;9.266;2023-06-26T03:52:17;100908.63;;;20.20;67.02
76201;BME280;64981;52.930;9.266;2023-06-26T03:54:42;100899.44;;;20.27;66.36
76201;BME280;64981;52.930;9.266;2023-06-26T03:57:08;100903.72;;;20.35;66.52
76201;BME280;64981;52.930;9.266;2023-06-26T03:59:34;100904.75;;;20.34;66.24
76201;BME280;64981;52.930;9.266;2023-06-26T04:02:00;100895.53;;;20.30;66.66
76201;BME280;64981;52.930;9.266;2023-06-26T04:04:26;100896.56;;;20.29;66.68
76201;BME280;64981;52.930;9.266;2023-06-26T04:06:52;100899.59;;;20.39;66.21
76201;BME280;64981;52.930;9.266;2023-06-26T04:09:17;100898.53;;;20.40;66.10
76201;BME280;64981;52.930;9.266;2023-06-26T04:11:44;100882.91;;;20.30;66.36
76201;BME280;64981;52.930;9.266;2023-06-26T04:14:10;100886.16;;;20.39;66.31
76201;BME280;64981;52.930;9.266;2023-06-26T04:16:36;100888.56;;;20.47;65.82
76201;BME280;64981;52.930;9.266;2023-06-26T04:19:01;100885.41;;;20.50;66.03
76201;BME280;64981;52.930;9.266;2023-06-26T04:21:28;100888.03;;;20.57;65.93
76201;BME280;64981;52.930;9.266;2023-06-26T04:23:53;100886.16;;;20.75;65.46
76201;BME280;64981;52.930;9.266;2023-06-26T04:26:19;100877.97;;;20.70;65.19
76201;BME280;64981;52.930;9.266;2023-06-26T04:28:45;100875.38;;;20.64;65.52
76201;BME280;64981;52.930;9.266;2023-06-26T04:31:11;100881.56;;;20.64;65.17
76201;BME280;64981;52.930;9.266;2023-06-26T04:33:37;100877.34;;;20.68;64.97
76201;BME280;64981;52.930;9.266;2023-06-26T04:36:04;100872.28;;;20.78;64.98
76201;BME280;64981;52.930;9.266;2023-06-26T04:38:32;100867.84;;;21.02;64.25
76201;BME280;64981;52.930;9.266;2023-06-26T04:40:59;100869.81;;;21.25;62.87
76201;BME280;64981;52.930;9.266;2023-06-26T04:43:25;100869.97;;;21.12;63.45
76201;BME280;64981;52.930;9.266;2023-06-26T04:45:51;100876.56;;;21.16;63.47
76201;BME280;64981;52.930;9.266;2023-06-26T04:48:16;100858.97;;;21.02;64.04
76201;BME280;64981;52.930;9.266;2023-06-26T04:50:42;100853.72;;;21.07;64.08
76201;BME280;64981;52.930;9.266;2023-06-26T04:53:08;100851.63;;;21.09;63.26
76201;BME280;64981;52.930;9.266;2023-06-26T04:55:35;100855.69;;;21.18;63.74
76201;BME280;64981;52.930;9.266;2023-06-26T04:58:00;100850.50;;;21.58;62.70
76201;BME280;64981;52.930;9.266;2023-06-26T05:00:26;100848.41;;;21.48;62.65
76201;BME280;64981;52.930;9.266;2023-06-26T05:02:51;100841.63;;;21.57;62.52
76201;BME280;64981;52.930;9.266;2023-06-26T05:05:26;100849.38;;;21.88;61.71
76201;BME280;64981;52.930;9.266;2023-06-26T05:07:54;100848.44;;;22.29;60.45
76201;BME280;64981;52.930;9.266;2023-06-26T05:10:20;100830.28;;;22.88;58.63
76201;BME280;64981;52.930;9.266;2023-06-26T05:12:46;100841.09;;;23.66;56.17
76201;BME280;64981;52.930;9.266;2023-06-26T05:15:11;100843.63;;;24.66;53.37
76201;BME280;64981;52.930;9.266;2023-06-26T05:17:37;100838.47;;;25.72;51.51
76201;BME280;64981;52.930;9.266;2023-06-26T05:20:03;100837.94;;;26.11;49.51
76201;BME280;64981;52.930;9.266;2023-06-26T05:22:32;100839.88;;;26.78;48.14
76201;BME280;64981;52.930;9.266;2023-06-26T05:25:04;100849.22;;;28.03;45.03
76201;BME280;64981;52.930;9.266;2023-06-26T05:27:30;100841.22;;;29.01;43.04
76201;BME280;64981;52.930;9.266;2023-06-26T05:29:56;100843.66;;;29.47;41.81
76201;BME280;64981;52.930;9.266;2023-06-26T05:32:22;100840.31;;;30.12;40.77
76201;BME280;64981;52.930;9.266;2023-06-26T05:34:48;100832.72;;;30.57;39.67
76201;BME280;64981;52.930;9.266;2023-06-26T05:37:21;100832.81;;;29.99;40.62
76201;BME280;64981;52.930;9.266;2023-06-26T05:39:47;100829.75;;;29.43;41.73
76201;BME280;64981;52.930;9.266;2023-06-26T05:42:14;100832.34;;;28.81;43.32
76201;BME280;64981;52.930;9.266;2023-06-26T05:44:40;100824.69;;;28.23;44.53
76201;BME280;64981;52.930;9.266;2023-06-26T05:47:05;100815.88;;;27.37;45.81
76201;BME280;64981;52.930;9.266;2023-06-26T05:49:31;100817.41;;;26.98;46.95
76201;BME280;64981;52.930;9.266;2023-06-26T05:51:57;100812.28;;;26.29;47.82
76201;BME280;64981;52.930;9.266;2023-06-26T05:54:24;100814.41;;;26.17;49.12
76201;BME280;64981;52.930;9.266;2023-06-26T05:56:56;100803.19;;;25.93;49.29
76201;BME280;64981;52.930;9.266;2023-06-26T05:59:22;100809.09;;;25.53;50.45
76201;BME280;64981;52.930;9.266;2023-06-26T06:01:48;100803.66;;;25.48;50.08
76201;BME280;64981;52.930;9.266;2023-06-26T06:04:14;100814.41;;;25.11;51.66
76201;BME280;64981;52.930;9.266;2023-06-26T06:06:39;100812.81;;;25.16;51.93
76201;BME280;64981;52.930;9.266;2023-06-26T06:09:05;100803.00;;;24.78;53.04
76201;BME280;64981;52.930;9.266;2023-06-26T06:11:31;100805.94;;;24.54;53.58
76201;BME280;64981;52.930;9.266;2023-06-26T06:13:56;100812.47;;;24.37;54.76
76201;BME280;64981;52.930;9.266;2023-06-26T06:16:24;100817.06;;;24.36;54.92
76201;BME280;64981;52.930;9.266;2023-06-26T06:18:49;100815.38;;;24.74;53.71
76201;BME280;64981;52.930;9.266;2023-06-26T06:21:15;100806.19;;;25.01;53.13
76201;BME280;64981;52.930;9.266;2023-06-26T06:23:41;100808.66;;;25.67;51.69
76201;BME280;64981;52.930;9.266;2023-06-26T06:26:06;100806.13;;;25.50;51.77
76201;BME280;64981;52.930;9.266;2023-06-26T06:28:32;100816.47;;;25.63;51.76
76201;BME280;64981;52.930;9.266;2023-06-26T06:30:57;100807.06;;;25.71;51.16
76201;BME280;64981;52.930;9.266;2023-06-26T06:33:23;100810.84;;;25.33;52.47
76201;BME280;64981;52.930;9.266;2023-06-26T06:35:49;100816.78;;;25.35;52.27
76201;BME280;64981;52.930;9.266;2023-06-26T06:38:14;100825.75;;;25.13;53.16
76201;BME280;64981;52.930;9.266;2023-06-26T06:40:40;100825.03;;;25.23;53.46
76201;BME280;64981;52.930;9.266;2023-06-26T06:43:05;100816.06;;;24.91;53.16
76201;BME280;64981;52.930;9.266;2023-06-26T06:45:31;100817.78;;;24.97;52.96
76201;BME280;64981;52.930;9.266;2023-06-26T06:47:57;100819.75;;;25.06;52.87
76201;BME280;64981;52.930;9.266;2023-06-26T06:50:22;100808.47;;;25.41;51.38
76201;BME280;64981;52.930;9.266;2023-06-26T06:52:48;100807.06;;;25.71;51.00
76201;BME280;64981;52.930;9.266;2023-06-26T06:55:13;100801.72;;;25.81;51.72
76201;BME280;64981;52.930;9.266;2023-06-26T06:57:40;100797.84;;;26.08;50.05
76201;BME280;64981;52.930;9.266;2023-06-26T07:00:08;100809.81;;;26.23;49.97
76201;BME280;64981;52.930;9.266;2023-06-26T07:02:36;100797.91;;;26.19;49.96
76201;BME280;64981;52.930;9.266;2023-06-26T07:05:03;100795.22;;;26.29;49.04
76201;BME280;64981;52.930;9.266;2023-06-26T07:07:30;100794.69;;;26.27;48.97
76201;BME280;64981;52.930;9.266;2023-06-26T07:09:59;100800.56;;;26.03;49.56
76201;BME280;64981;52.930;9.266;2023-06-26T07:12:25;100806.22;;;26.07;49.55
76201;BME280;64981;52.930;9.266;2023-06-26T07:14:51;100808.63;;;25.98;49.59
76201;BME280;64981;52.930;9.266;2023-06-26T07:17:16;100806.09;;;25.87;50.70
76201;BME280;64981;52.930;9.266;2023-06-26T07:19:42;100802.56;;;25.86;49.78
76201;BME280;64981;52.930;9.266;2023-06-26T07:22:07;100802.31;;;25.88;49.50
76201;BME280;64981;52.930;9.266;2023-06-26T07:24:33;100806.94;;;25.92;49.94
76201;BME280;64981;52.930;9.266;2023-06-26T07:26:59;100797.31;;;26.06;49.11
76201;BME280;64981;52.930;9.266;2023-06-26T07:29:26;100794.03;;;25.99;49.17
76201;BME280;64981;52.930;9.266;2023-06-26T07:31:51;100799.22;;;26.11;49.36
76201;BME280;64981;52.930;9.266;2023-06-26T07:34:17;100797.91;;;26.19;49.05
76201;BME280;64981;52.930;9.266;2023-06-26T07:36:42;100803.06;;;26.20;49.77
76201;BME280;64981;52.930;9.266;2023-06-26T07:39:08;100807.66;;;26.20;49.97
76201;BME280;64981;52.930;9.266;2023-06-26T07:41:34;100794.19;;;26.35;49.21
76201;BME280;64981;52.930;9.266;2023-06-26T07:43:59;100804.22;;;26.34;49.32
76201;BME280;64981;52.930;9.266;2023-06-26T07:46:25;100809.38;;;26.41;49.10
76201;BME280;64981;52.930;9.266;2023-06-26T07:48:51;100824.13;;;26.65;49.05
76201;BME280;64981;52.930;9.266;2023-06-26T07:51:16;100819.00;;;26.68;49.75
76201;BME280;64981;52.930;9.266;2023-06-26T07:53:42;100821.72;;;26.79;49.51
76201;BME280;64981;52.930;9.266;2023-06-26T07:56:08;100822.59;;;26.94;48.96
76201;BME280;64981;52.930;9.266;2023-06-26T07:58:33;100826.88;;;26.85;49.08
76201;BME280;64981;52.930;9.266;2023-06-26T08:00:59;100832.88;;;26.87;49.40
76201;BME280;64981;52.930;9.266;2023-06-26T08:03:24;100837.72;;;26.85;49.22
76201;BME280;64981;52.930;9.266;2023-06-26T08:05:50;100840.00;;;27.18;48.05
76201;BME280;64981;52.930;9.266;2023-06-26T08:08:16;100840.56;;;27.46;48.13
76201;BME280;64981;52.930;9.266;2023-06-26T08:10:41;100848.16;;;27.34;48.98
76201;BME280;64981;52.930;9.266;2023-06-26T08:13:07;100853.22;;;27.05;49.35
76201;BME280;64981;52.930;9.266;2023-06-26T08:15:33;100852.69;;;27.08;49.72
76201;BME280;64981;52.930;9.266;2023-06-26T08:17:58;100862.13;;;26.85;50.24
76201;BME280;64981;52.930;9.266;2023-06-26T08:20:24;100863.22;;;26.84;50.33
76201;BME280;64981;52.930;9.266;2023-06-26T08:22:50;100854.00;;;26.90;50.26
76201;BME280;64981;52.930;9.266;2023-06-26T08:25:17;100865.94;;;26.89;50.09
76201;BME280;64981;52.930;9.266;2023-06-26T08:27:43;100861.63;;;26.93;49.94
76201;BME280;64981;52.930;9.266;2023-06-26T08:30:09;100859.41;;;26.85;49.26
76201;BME280;64981;52.930;9.266;2023-06-26T08:32:35;100874.38;;;27.03;48.97
76201;BME280;64981;52.930;9.266;2023-06-26T08:35:01;100873.28;;;26.99;49.31
76201;BME280;64981;52.930;9.266;2023-06-26T08:37:27;100870.03;;;27.02;49.10
76201;BME280;64981;52.930;9.266;2023-06-26T08:39:52;100880.59;;;26.93;49.47
76201;BME280;64981;52.930;9.266;2023-06-26T08:42:18;100879.22;;;27.01;48.99
76201;BME280;64981;52.930;9.266;2023-06-26T08:44:44;100877.38;;;27.06;49.27
76201;BME280;64981;52.930;9.266;2023-06-26T08:47:11;100873.03;;;27.05;49.21
76201;BME280;64981;52.930;9.266;2023-06-26T08:49:53;100880.59;;;26.93;49.54
76201;BME280;64981;52.930;9.266;2023-06-26T08:52:23;100886.34;;;27.17;49.19
76201;BME280;64981;52.930;9.266;2023-06-26T08:54:56;100901.28;;;27.19;49.76
76201;BME280;64981;52.930;9.266;2023-06-26T08:57:25;100893.13;;;27.19;49.90
76201;BME280;64981;52.930;9.266;2023-06-26T08:59:52;100903.94;;;27.14;49.49
76201;BME280;64981;52.930;9.266;2023-06-26T09:02:18;100904.38;;;26.76;49.90
76201;BME280;64981;52.930;9.266;2023-06-26T09:04:47;100909.00;;;26.81;49.89
76201;BME280;64981;52.930;9.266;2023-06-26T09:07:14;100914.09;;;26.67;49.93
76201;BME280;64981;52.930;9.266;2023-06-26T09:09:40;100924.69;;;26.74;50.25
76201;BME280;64981;52.930;9.266;2023-06-26T09:12:06;100940.25;;;26.51;51.28
76201;BME280;64981;52.930;9.266;2023-06-26T09:14:33;100940.44;;;26.35;51.23
76201;BME280;64981;52.930;9.266;2023-06-26T09:16:59;100953.88;;;26.20;51.46
76201;BME280;64981;52.930;9.266;2023-06-26T09:19:26;100959.75;;;26.06;52.61
76201;BME280;64981;52.930;9.266;2023-06-26T09:21:52;100952.53;;;25.90;53.01
76201;BME280;64981;52.930;9.266;2023-06-26T09:24:18;100959.16;;;25.46;55.65
76201;BME280;64981;52.930;9.266;2023-06-26T09:26:44;100983.59;;;24.91;59.15
76201;BME280;64981;52.930;9.266;2023-06-26T09:29:09;101004.06;;;24.48;61.16
76201;BME280;64981;52.930;9.266;2023-06-26T09:31:37;101023.97;;;24.09;64.22
76201;BME280;64981;52.930;9.266;2023-06-26T09:34:03;101039.56;;;23.79;65.78
76201;BME280;64981;52.930;9.266;2023-06-26T09:36:30;101028.34;;;23.30;66.26
76201;BME280;64981;52.930;9.266;2023-06-26T09:39:03;101041.19;;;22.88;67.48
76201;BME280;64981;52.930;9.266;2023-06-26T09:41:35;101029.81;;;22.52;68.13
76201;BME280;64981;52.930;9.266;2023-06-26T09:44:02;101040.44;;;22.46;67.67
76201;BME280;64981;52.930;9.266;2023-06-26T09:46:29;101042.66;;;22.15;69.75
76201;BME280;64981;52.930;9.266;2023-06-26T09:49:07;101056.97;;;21.97;71.32
76201;BME280;64981;52.930;9.266;2023-06-26T09:51:34;101047.16;;;22.03;70.40
76201;BME280;64981;52.930;9.266;2023-06-26T09:54:01;101045.38;;;21.96;71.49
76201;BME280;64981;52.930;9.266;2023-06-26T09:56:29;101028.09;;;21.92;72.72
76201;BME280;64981;52.930;9.266;2023-06-26T09:58:57;101032.44;;;22.05;72.24
76201;BME280;64981;52.930;9.266;2023-06-26T10:01:24;101045.00;;;22.23;72.12
76201;BME280;64981;52.930;9.266;2023-06-26T10:03:50;101040.91;;;22.20;72.47
76201;BME280;64981;52.930;9.266;2023-06-26T10:06:19;101043.59;;;22.32;71.59
76201;BME280;64981;52.930;9.266;2023-06-26T10:08:49;101048.31;;;22.48;70.69
76201;BME280;64981;52.930;9.266;2023-06-26T10:11:19;101051.69;;;22.32;70.82
76201;BME280;64981;52.930;9.266;2023-06-26T10:13:50;101046.81;;;22.52;70.95
76201;BME280;64981;52.930;9.266;2023-06-26T10:16:23;101042.69;;;22.49;71.00
76201;BME280;64981;52.930;9.266;2023-06-26T10:18:53;101050.34;;;22.76;71.46
76201;BME280;64981;52.930;9.266;2023-06-26T10:21:24;101038.16;;;22.73;71.08
76201;BME280;64981;52.930;9.266;2023-06-26T10:23:52;101051.50;;;22.91;70.81
76201;BME280;64981;52.930;9.266;2023-06-26T10:26:20;101051.47;;;23.03;70.90
76201;BME280;64981;52.930;9.266;2023-06-26T10:28:48;101055.31;;;23.19;70.06
76201;BME280;64981;52.930;9.266;2023-06-26T10:31:21;101059.19;;;23.23;70.68
76201;BME280;64981;52.930;9.266;2023-06-26T10:33:49;101046.78;;;23.33;69.76
76201;BME280;64981;52.930;9.266;2023-06-26T10:36:17;101052.63;;;23.42;69.79
76201;BME280;64981;52.930;9.266;2023-06-26T10:39:04;101050.59;;;23.49;68.40
76201;BME280;64981;52.930;9.266;2023-06-26T10:41:40;101056.34;;;23.41;68.05
76201;BME280;64981;52.930;9.266;2023-06-26T10:44:11;101066.31;;;23.29;67.47
76201;BME280;64981;52.930;9.266;2023-06-26T10:46:54;101070.66;;;23.30;66.69
76201;BME280;64981;52.930;9.266;2023-06-26T10:49:21;101081.44;;;23.30;65.90
76201;BME280;64981;52.930;9.266;2023-06-26T10:51:51;101084.50;;;23.22;64.54
76201;BME280;64981;52.930;9.266;2023-06-26T10:54:19;101079.16;;;22.98;63.88
76201;BME280;64981;52.930;9.266;2023-06-26T10:56:47;101081.84;;;22.87;63.91
76201;BME280;64981;52.930;9.266;2023-06-26T10:59:17;101072.84;;;22.93;63.50
76201;BME280;64981;52.930;9.266;2023-06-26T11:01:45;101080.19;;;22.97;63.45
76201;BME280;64981;52.930;9.266;2023-06-26T11:04:12;101072.47;;;23.01;61.86
76201;BME280;64981;52.930;9.266;2023-06-26T11:06:39;101071.75;;;23.06;62.18
76201;BME280;64981;52.930;9.266;2023-06-26T11:09:11;101078.78;;;23.18;61.97
76201;BME280;64981;52.930;9.266;2023-06-26T11:11:56;101078.03;;;23.46;62.38
76201;BME280;64981;52.930;9.266;2023-06-26T11:14:26;101088.22;;;23.44;60.46
76201;BME280;64981;52.930;9.266;2023-06-26T11:16:52;101086.22;;;23.51;58.64
76201;BME280;64981;52.930;9.266;2023-06-26T11:19:20;101084.75;;;23.72;58.17
76201;BME280;64981;52.930;9.266;2023-06-26T11:21:47;101088.81;;;23.86;58.16
76201;BME280;64981;52.930;9.266;2023-06-26T11:24:14;101091.25;;;23.87;52.89
76201;BME280;64981;52.930;9.266;2023-06-26T11:26:41;101048.13;;;23.59;53.66
76201;BME280;64981;52.930;9.266;2023-06-26T11:29:07;101091.59;;;24.02;52.97
76201;BME280;64981;52.930;9.266;2023-06-26T11:31:34;101081.72;;;23.96;52.45
76201;BME280;64981;52.930;9.266;2023-06-26T11:34:02;101086.88;;;23.98;53.49
76201;BME280;64981;52.930;9.266;2023-06-26T11:36:29;101088.06;;;24.19;53.12
76201;BME280;64981;52.930;9.266;2023-06-26T11:38:58;101092.91;;;24.17;52.86
76201;BME280;64981;52.930;9.266;2023-06-26T11:41:26;101087.81;;;24.03;53.21
76201;BME280;64981;52.930;9.266;2023-06-26T11:43:53;101091.38;;;24.21;53.35
76201;BME280;64981;52.930;9.266;2023-06-26T11:46:21;101099.72;;;24.36;50.47
76201;BME280;64981;52.930;9.266;2023-06-26T11:48:47;101093.34;;;24.58;50.62
76201;BME280;64981;52.930;9.266;2023-06-26T11:51:14;101096.88;;;24.59;49.60
76201;BME280;64981;52.930;9.266;2023-06-26T11:53:41;101084.16;;;24.59;47.23
76201;BME280;64981;52.930;9.266;2023-06-26T11:56:09;101084.88;;;24.67;48.20
76201;BME280;64981;52.930;9.266;2023-06-26T11:58:34;101097.72;;;24.76;48.91
76201;BME280;64981;52.930;9.266;2023-06-26T12:01:00;101091.56;;;24.64;49.84
76201;BME280;64981;52.930;9.266;2023-06-26T12:03:26;101107.09;;;24.57;48.54
76201;BME280;64981;52.930;9.266;2023-06-26T12:05:52;101111.09;;;24.54;49.34
76201;BME280;64981;52.930;9.266;2023-06-26T12:08:18;101103.31;;;24.41;48.00
76201;BME280;64981;52.930;9.266;2023-06-26T12:10:45;101105.31;;;24.46;48.34
76201;BME280;64981;52.930;9.266;2023-06-26T12:13:11;101127.09;;;24.56;48.31
76201;BME280;64981;52.930;9.266;2023-06-26T12:15:36;101135.91;;;24.51;48.60
76201;BME280;64981;52.930;9.266;2023-06-26T12:18:09;101142.28;;;24.45;47.62
76201;BME280;64981;52.930;9.266;2023-06-26T12:20:39;101139.75;;;24.11;47.92
76201;BME280;64981;52.930;9.266;2023-06-26T12:23:12;101145.34;;;24.21;47.52
76201;BME280;64981;52.930;9.266;2023-06-26T12:25:37;101133.81;;;24.09;47.93
76201;BME280;64981;52.930;9.266;2023-06-26T12:28:03;101136.25;;;23.98;48.33
76201;BME280;64981;52.930;9.266;2023-06-26T12:30:30;101135.34;;;24.04;48.31
76201;BME280;64981;52.930;9.266;2023-06-26T12:32:56;101131.59;;;24.05;47.97
76201;BME280;64981;52.930;9.266;2023-06-26T12:35:21;101131.25;;;24.19;46.86
76201;BME280;64981;52.930;9.266;2023-06-26T12:37:47;101128.81;;;24.17;46.97
76201;BME280;64981;52.930;9.266;2023-06-26T12:40:20;101119.03;;;24.28;46.49
76201;BME280;64981;52.930;9.266;2023-06-26T12:42:47;101127.13;;;24.28;45.47
76201;BME280;64981;52.930;9.266;2023-06-26T12:45:14;101142.69;;;24.37;45.91
76201;BME280;64981;52.930;9.266;2023-06-26T12:47:39;101139.41;;;24.35;45.11
76201;BME280;64981;52.930;9.266;2023-06-26T12:50:07;101129.84;;;24.61;45.17
76201;BME280;64981;52.930;9.266;2023-06-26T12:52:33;101129.53;;;24.57;44.56
76201;BME280;64981;52.930;9.266;2023-06-26T12:54:59;101140.13;;;24.76;45.03